Time;durP1;ratioP1;P1;durP2;ratioP2;P2;SDS_P1;SDS_P2;PMS_P1;PMS_P2;Temp;Humidity;BMP_temperature;BMP_pressure;BME280_temperature;BME280_humidity;BME280_pressure;Samples;Min_cycle;Max_cycle;Signal;HPM_P1;HPM_P2
2023/07/13 00:00:36;;;;;;;;;;;;;;;23.82;39.68;101360.91;4174382;28;19924;-62
2023/07/13 00:02:38;;;;;;;;;;;;;;;23.83;39.97;101364.44;4171166;28;20275;-61
2023/07/13 00:04:40;;;;;;;;;;;;;;;23.82;39.92;101362.75;4174932;28;19920;-62
2023/07/13 00:06:44;;;;;;;;;;;;;;;23.81;39.73;101367.25;4163531;28;19971;-62
2023/07/13 00:08:47;;;;;;;;;;;;;;;23.81;39.71;101369.09;4168902;28;19924;-62
2023/07/13 00:10:54;;;;;;;;;;;;;;;23.80;39.96;101362.84;4172233;28;20016;-63
2023/07/13 00:12:56;;;;;;;;;;;;;;;23.80;39.66;101370.91;4164623;28;20300;-62
2023/07/13 00:15:03;;;;;;;;;;;;;;;23.80;39.90;101368.22;4166311;28;20350;-62
2023/07/13 00:17:04;;;;;;;;;;;;;;;23.79;39.97;101366.53;4180920;28;19928;-62
2023/07/13 00:19:06;;;;;;;;;;;;;;;23.78;39.85;101370.22;4175745;28;19928;-62
2023/07/13 00:21:08;;;;;;;;;;;;;;;23.78;39.76;101375.59;4173005;28;19921;-61
2023/07/13 00:23:09;;;;;;;;;;;;;;;23.76;39.70;101370.31;4181148;28;19921;-62
2023/07/13 00:25:11;;;;;;;;;;;;;;;23.76;40.10;101373.00;4150090;28;19930;-62
2023/07/13 00:27:14;;;;;;;;;;;;;;;23.76;39.71;101378.38;4180813;28;19947;-61
2023/07/13 00:29:16;;;;;;;;;;;;;;;23.76;39.86;101378.38;4177667;28;19921;-62
2023/07/13 00:31:17;;;;;;;;;;;;;;;23.75;39.72;101370.44;4167495;28;19927;-63
2023/07/13 00:33:19;;;;;;;;;;;;;;;23.74;40.03;101369.59;4163864;28;19925;-61
2023/07/13 00:35:21;;;;;;;;;;;;;;;23.60;39.82;101343.00;4173508;28;19928;-61
2023/07/13 00:37:22;;;;;;;;;;;;;;;23.74;40.07;101374.09;4165885;28;19928;-62
2023/07/13 00:39:24;;;;;;;;;;;;;;;23.74;39.69;101371.41;4165359;28;20388;-61
2023/07/13 00:41:26;;;;;;;;;;;;;;;23.73;39.99;101373.28;4158646;28;20027;-61
2023/07/13 00:43:28;;;;;;;;;;;;;;;23.73;39.75;101375.06;4180457;28;20387;-62
2023/07/13 00:45:30;;;;;;;;;;;;;;;23.73;39.76;101375.94;4170134;28;19974;-61
2023/07/13 00:47:32;;;;;;;;;;;;;;;23.72;39.95;101374.25;4177158;28;19920;-62
2023/07/13 00:49:35;;;;;;;;;;;;;;;23.73;39.90;101384.00;4178569;28;19928;-62
2023/07/13 00:51:49;;;;;;;;;;;;;;;23.72;40.08;101379.59;4169365;28;19976;-62
2023/07/13 00:53:52;;;;;;;;;;;;;;;23.72;40.19;101381.41;4179769;28;19920;-62
2023/07/13 00:55:54;;;;;;;;;;;;;;;23.71;40.13;101383.28;4170635;28;19967;-62
2023/07/13 00:57:56;;;;;;;;;;;;;;;23.71;39.96;101382.44;4177246;28;19928;-62
2023/07/13 00:59:59;;;;;;;;;;;;;;;23.70;39.94;101389.63;4178588;28;20005;-62
2023/07/13 01:02:01;;;;;;;;;;;;;;;23.70;39.96;101388.78;4169063;28;19920;-62
2023/07/13 01:04:03;;;;;;;;;;;;;;;23.70;40.28;101386.09;4179245;28;19921;-62
2023/07/13 01:06:04;;;;;;;;;;;;;;;23.69;39.93;101389.75;4171593;28;20011;-62
2023/07/13 01:08:06;;;;;;;;;;;;;;;23.69;40.02;101385.22;4176080;28;20110;-61
2023/07/13 01:10:08;;;;;;;;;;;;;;;23.69;40.20;101389.75;4178464;28;19997;-61
2023/07/13 01:12:09;;;;;;;;;;;;;;;23.69;39.96;101392.44;4168790;28;19963;-62
2023/07/13 01:14:11;;;;;;;;;;;;;;;23.69;40.41;101395.13;4179262;28;19955;-62
2023/07/13 01:16:19;;;;;;;;;;;;;;;23.69;40.41;101400.50;4173254;28;19928;-62
2023/07/13 01:18:24;;;;;;;;;;;;;;;23.67;40.06;101395.25;4157053;28;19927;-62
2023/07/13 01:20:25;;;;;;;;;;;;;;;23.68;40.36;101396.09;4178548;28;19920;-62
2023/07/13 01:22:27;;;;;;;;;;;;;;;23.67;40.28;101397.94;4168807;28;20403;-63
2023/07/13 01:24:28;;;;;;;;;;;;;;;23.67;40.18;101399.75;4178989;28;20019;-62
2023/07/13 01:26:30;;;;;;;;;;;;;;;23.66;40.16;101401.59;4174280;28;20296;-62
2023/07/13 01:28:36;;;;;;;;;;;;;;;23.65;40.11;101397.19;4173303;28;19927;-62
2023/07/13 01:30:39;;;;;;;;;;;;;;;23.66;40.52;101403.41;4179095;28;20387;-62
2023/07/13 01:32:42;;;;;;;;;;;;;;;23.65;40.23;101397.19;4152806;28;19921;-62
2023/07/13 01:34:44;;;;;;;;;;;;;;;23.64;40.16;101400.84;4162655;28;19921;-62
2023/07/13 01:36:45;;;;;;;;;;;;;;;23.64;40.07;101395.47;4168367;28;19927;-62
2023/07/13 01:38:47;;;;;;;;;;;;;;;23.64;40.13;101402.69;4170675;28;19924;-62
2023/07/13 01:40:49;;;;;;;;;;;;;;;23.64;40.18;101402.69;4163830;28;20268;-62
2023/07/13 01:42:51;;;;;;;;;;;;;;;23.63;40.17;101411.72;4175311;28;19987;-62
2023/07/13 01:44:52;;;;;;;;;;;;;;;23.61;40.55;101406.50;4162380;28;19925;-62
2023/07/13 01:46:54;;;;;;;;;;;;;;;23.61;40.48;101401.97;4165983;28;20348;-62
2023/07/13 01:48:56;;;;;;;;;;;;;;;23.60;40.50;101413.66;4172300;28;20391;-62
2023/07/13 01:50:57;;;;;;;;;;;;;;;23.61;40.32;101399.28;4163536;28;19921;-63
2023/07/13 01:53:02;;;;;;;;;;;;;;;23.62;40.43;101405.47;4173967;28;19921;-62
2023/07/13 01:55:04;;;;;;;;;;;;;;;23.60;40.25;101402.09;4163375;28;20299;-62
2023/07/13 01:57:06;;;;;;;;;;;;;;;23.60;40.48;101404.78;4165001;28;20441;-62
2023/07/13 01:59:08;;;;;;;;;;;;;;;23.60;40.28;101404.78;4173298;28;20431;-62
2023/07/13 02:01:10;;;;;;;;;;;;;;;23.59;40.40;101408.44;4163043;28;19921;-62
2023/07/13 02:03:11;;;;;;;;;;;;;;;23.59;40.47;101405.75;4172296;28;19928;-62
2023/07/13 02:05:13;;;;;;;;;;;;;;;23.58;40.43;101407.56;4164846;28;19921;-62
2023/07/13 02:07:15;;;;;;;;;;;;;;;23.57;40.72;101413.06;4164183;28;19921;-63
2023/07/13 02:09:17;;;;;;;;;;;;;;;23.57;40.58;101415.75;4174358;28;20402;-62
2023/07/13 02:11:18;;;;;;;;;;;;;;;23.56;40.60;101414.03;4163404;28;20388;-62
2023/07/13 02:13:20;;;;;;;;;;;;;;;23.56;40.72;101414.91;4171220;28;19921;-62
2023/07/13 02:15:24;;;;;;;;;;;;;;;23.56;40.50;101411.34;4165848;28;19921;-62
2023/07/13 02:17:26;;;;;;;;;;;;;;;23.54;40.32;101411.47;4164287;28;19928;-62
2023/07/13 02:19:28;;;;;;;;;;;;;;;23.54;40.61;101410.63;4174188;28;20007;-61
2023/07/13 02:21:29;;;;;;;;;;;;;;;23.53;40.67;101411.63;4163061;28;19975;-63
2023/07/13 02:23:31;;;;;;;;;;;;;;;23.52;40.54;101416.09;4169391;28;20008;-62
2023/07/13 02:25:33;;;;;;;;;;;;;;;23.52;40.69;101413.44;4170550;28;20016;-62
2023/07/13 02:27:35;;;;;;;;;;;;;;;23.51;40.42;101410.88;4167461;28;20307;-62
2023/07/13 02:29:36;;;;;;;;;;;;;;;23.52;40.69;101420.63;4177063;28;19925;-62
2023/07/13 02:31:38;;;;;;;;;;;;;;;23.51;40.54;101418.94;4166055;28;19931;-62
2023/07/13 02:33:39;;;;;;;;;;;;;;;23.51;40.44;101408.19;4170608;28;20023;-62
2023/07/13 02:35:41;;;;;;;;;;;;;;;23.50;40.45;101404.66;4172102;28;19999;-62
2023/07/13 02:37:42;;;;;;;;;;;;;;;23.49;40.51;101402.06;4164943;28;19921;-61
2023/07/13 02:39:44;;;;;;;;;;;;;;;23.48;40.55;101403.06;4177638;28;19942;-63
2023/07/13 02:41:45;;;;;;;;;;;;;;;23.48;40.74;101403.91;4166216;28;19944;-63
2023/07/13 02:43:47;;;;;;;;;;;;;;;23.48;40.79;101413.81;4168659;28;19921;-63
2023/07/13 02:45:49;;;;;;;;;;;;;;;23.49;40.60;101407.44;4174007;28;19925;-63
2023/07/13 02:47:50;;;;;;;;;;;;;;;23.47;40.58;101412.94;4166229;28;19928;-62
2023/07/13 02:49:52;;;;;;;;;;;;;;;23.47;40.44;101414.78;4176353;28;20257;-62
2023/07/13 02:51:53;;;;;;;;;;;;;;;23.47;40.77;101412.94;4167440;28;19921;-62
2023/07/13 02:53:55;;;;;;;;;;;;;;;23.47;40.74;101414.78;4166684;28;19927;-62
2023/07/13 02:55:57;;;;;;;;;;;;;;;23.46;40.36;101413.91;4175881;28;19937;-62
2023/07/13 02:58:01;;;;;;;;;;;;;;;23.44;40.41;101406.00;4165611;28;20040;-62
2023/07/13 03:00:05;;;;;;;;;;;;;;;23.44;40.82;101414.03;4174567;28;19974;-62
2023/07/13 03:02:07;;;;;;;;;;;;;;;23.44;40.77;101411.38;4168188;28;19921;-62
2023/07/13 03:04:09;;;;;;;;;;;;;;;23.45;40.78;101412.19;4165949;28;19932;-63
2023/07/13 03:06:10;;;;;;;;;;;;;;;23.43;40.50;101415.03;4176501;28;19921;-63
2023/07/13 03:08:13;;;;;;;;;;;;;;;23.42;40.54;101413.31;4164587;28;20008;-63
2023/07/13 03:10:14;;;;;;;;;;;;;;;23.42;40.77;101417.84;4173335;28;19920;-63
2023/07/13 03:12:16;;;;;;;;;;;;;;;23.43;40.54;101419.53;4169679;28;20000;-63
2023/07/13 03:14:18;;;;;;;;;;;;;;;23.41;40.55;101416.97;4165530;28;19928;-63
2023/07/13 03:16:19;;;;;;;;;;;;;;;23.41;40.83;101418.81;4176280;28;20039;-63
2023/07/13 03:18:22;;;;;;;;;;;;;;;23.41;40.85;101414.28;4165573;28;19921;-63
2023/07/13 03:20:23;;;;;;;;;;;;;;;23.40;40.60;101420.66;4171405;28;19956;-63
2023/07/13 03:22:24;;;;;;;;;;;;;;;23.40;40.84;101419.78;4171290;28;19927;-63
2023/07/13 03:24:26;;;;;;;;;;;;;;;23.39;40.92;101426.97;4165092;28;19921;-63
2023/07/13 03:26:28;;;;;;;;;;;;;;;23.39;40.54;101429.66;4175999;28;19921;-63
2023/07/13 03:28:29;;;;;;;;;;;;;;;23.38;40.54;101424.41;4165072;28;20292;-63
2023/07/13 03:30:31;;;;;;;;;;;;;;;23.37;40.68;101431.63;4169830;28;19967;-63
2023/07/13 03:32:33;;;;;;;;;;;;;;;23.37;40.79;101423.56;4171746;28;19967;-63
2023/07/13 03:34:34;;;;;;;;;;;;;;;23.37;40.69;101422.72;4180696;28;20300;-63
2023/07/13 03:36:36;;;;;;;;;;;;;;;23.37;40.72;101430.78;4150585;28;19927;-63
2023/07/13 03:38:37;;;;;;;;;;;;;;;23.36;40.54;101432.59;4148830;28;19921;-62
2023/07/13 03:40:39;;;;;;;;;;;;;;;23.35;40.70;101430.88;4141187;28;19932;-63
2023/07/13 03:42:41;;;;;;;;;;;;;;;23.36;40.99;101434.44;4174074;28;19925;-63
2023/07/13 03:44:45;;;;;;;;;;;;;;;23.35;41.06;101436.22;4164013;28;19921;-64
2023/07/13 03:46:47;;;;;;;;;;;;;;;23.34;40.77;101437.22;4175835;28;19952;-62
2023/07/13 03:48:48;;;;;;;;;;;;;;;23.33;40.86;101435.53;4166569;28;19948;-63
2023/07/13 03:50:50;;;;;;;;;;;;;;;23.33;40.86;101432.84;4166495;28;20398;-63
2023/07/13 03:52:51;;;;;;;;;;;;;;;23.32;40.69;101444.53;4175426;28;19964;-64
2023/07/13 03:54:53;;;;;;;;;;;;;;;23.32;40.99;101436.50;4164005;28;19921;-63
2023/07/13 03:57:00;;;;;;;;;;;;;;;23.33;40.88;101442.69;4174304;28;19931;-62
2023/07/13 03:59:03;;;;;;;;;;;;;;;23.32;40.84;101439.19;4166931;28;20028;-63
2023/07/13 04:01:06;;;;;;;;;;;;;;;23.31;40.81;101432.09;4165956;28;19948;-63
2023/07/13 04:03:08;;;;;;;;;;;;;;;23.30;41.03;101441.13;4172102;28;20003;-63
2023/07/13 04:05:09;;;;;;;;;;;;;;;23.30;40.77;101446.47;4180332;28;19931;-63
2023/07/13 04:07:16;;;;;;;;;;;;;;;23.29;40.83;101451.00;4171606;28;20387;-64
2023/07/13 04:09:23;;;;;;;;;;;;;;;23.29;40.66;101458.19;4178857;28;20310;-63
2023/07/13 04:11:31;;;;;;;;;;;;;;;23.28;41.03;101457.34;4178780;28;19954;-62
2023/07/13 04:13:33;;;;;;;;;;;;;;;23.28;40.72;101453.78;4170355;28;19921;-62
2023/07/13 04:15:35;;;;;;;;;;;;;;;23.27;40.74;101452.94;4179822;28;19959;-62
2023/07/13 04:17:36;;;;;;;;;;;;;;;23.27;41.14;101455.63;4171379;28;20009;-62
2023/07/13 04:19:38;;;;;;;;;;;;;;;23.27;40.64;101463.69;4177775;28;19924;-63
2023/07/13 04:21:45;;;;;;;;;;;;;;;23.26;40.96;101461.13;4179467;28;19959;-63
2023/07/13 04:23:47;;;;;;;;;;;;;;;23.26;40.93;101466.50;4169706;28;19921;-62
2023/07/13 04:25:52;;;;;;;;;;;;;;;23.25;40.81;101464.78;4179547;28;19921;-62
2023/07/13 04:27:54;;;;;;;;;;;;;;;23.25;40.71;101467.47;4171830;28;19921;-63
2023/07/13 04:29:56;;;;;;;;;;;;;;;23.24;40.86;101458.53;4177102;28;19995;-63
2023/07/13 04:31:57;;;;;;;;;;;;;;;23.25;40.80;101470.16;4167462;28;20000;-63
2023/07/13 04:33:59;;;;;;;;;;;;;;;23.24;40.87;101471.97;4175293;28;20306;-63
2023/07/13 04:36:06;;;;;;;;;;;;;;;23.23;41.03;101475.66;4163172;28;19920;-61
2023/07/13 04:38:08;;;;;;;;;;;;;;;23.24;40.90;101479.16;4171871;28;19934;-62
2023/07/13 04:40:12;;;;;;;;;;;;;;;23.22;41.05;101481.97;4168094;28;19964;-62
2023/07/13 04:42:13;;;;;;;;;;;;;;;23.22;41.11;101481.09;4147952;28;19976;-62
2023/07/13 04:44:15;;;;;;;;;;;;;;;23.22;41.14;101481.09;4175020;28;19921;-62
2023/07/13 04:46:20;;;;;;;;;;;;;;;23.20;40.93;101478.56;4162153;28;20426;-62
2023/07/13 04:48:22;;;;;;;;;;;;;;;23.21;41.25;101474.03;4170940;28;20302;-63
2023/07/13 04:50:23;;;;;;;;;;;;;;;23.21;40.94;101471.34;4169148;28;19921;-63
2023/07/13 04:52:25;;;;;;;;;;;;;;;23.20;41.14;101475.03;4165203;28;20004;-62
2023/07/13 04:54:26;;;;;;;;;;;;;;;23.20;40.81;101472.34;4173834;28;19920;-63
2023/07/13 04:56:33;;;;;;;;;;;;;;;23.19;40.84;101473.31;4163854;28;19936;-62
2023/07/13 04:58:40;;;;;;;;;;;;;;;23.20;40.84;101475.03;4170107;28;20366;-62
2023/07/13 05:00:41;;;;;;;;;;;;;;;23.20;41.39;101480.41;4169505;28;19921;-62
2023/07/13 05:02:44;;;;;;;;;;;;;;;23.20;41.11;101483.06;4164919;28;20015;-62
2023/07/13 05:04:46;;;;;;;;;;;;;;;23.19;41.22;101486.72;4174062;28;19925;-62
2023/07/13 05:06:48;;;;;;;;;;;;;;;23.19;40.97;101481.38;4163810;28;19921;-62
2023/07/13 05:08:54;;;;;;;;;;;;;;;23.19;41.32;101481.38;4168893;28;20443;-61
2023/07/13 05:10:55;;;;;;;;;;;;;;;23.18;41.09;101480.50;4170281;28;19925;-62
2023/07/13 05:12:57;;;;;;;;;;;;;;;23.18;41.49;101476.97;4163835;28;19928;-62
2023/07/13 05:14:58;;;;;;;;;;;;;;;23.18;41.20;101482.34;4174547;28;19920;-62
2023/07/13 05:17:00;;;;;;;;;;;;;;;23.18;41.56;101476.97;4163653;28;19929;-63
2023/07/13 05:19:02;;;;;;;;;;;;;;;23.18;41.12;101476.97;4167314;28;19921;-62
2023/07/13 05:21:09;;;;;;;;;;;;;;;23.15;41.45;101483.41;4171317;28;20023;-63
2023/07/13 05:23:16;;;;;;;;;;;;;;;23.13;41.24;101480.81;4163799;28;19963;-62
2023/07/13 05:25:17;;;;;;;;;;;;;;;23.12;41.78;101479.13;4166489;28;20403;-62
2023/07/13 05:27:19;;;;;;;;;;;;;;;23.13;41.59;101488.00;4180192;28;19924;-62
2023/07/13 05:29:21;;;;;;;;;;;;;;;23.13;41.67;101490.69;4176083;28;20342;-63
2023/07/13 05:31:22;;;;;;;;;;;;;;;23.14;41.70;101481.69;4167136;28;19927;-62
2023/07/13 05:33:29;;;;;;;;;;;;;;;23.13;41.46;101490.69;4163819;28;19921;-62
2023/07/13 05:35:36;;;;;;;;;;;;;;;23.13;41.67;101496.06;4174367;28;19925;-63
2023/07/13 05:37:37;;;;;;;;;;;;;;;23.13;41.84;101494.22;4163637;28;19929;-62
2023/07/13 05:39:39;;;;;;;;;;;;;;;23.14;41.47;101495.94;4166506;28;20011;-62
2023/07/13 05:41:41;;;;;;;;;;;;;;;23.14;41.58;101492.41;4172380;28;19929;-62
2023/07/13 05:43:42;;;;;;;;;;;;;;;23.14;41.67;101498.63;4163643;28;19975;-62
2023/07/13 05:45:49;;;;;;;;;;;;;;;23.12;41.80;101503.28;4173602;28;19921;-61
2023/07/13 05:47:51;;;;;;;;;;;;;;;23.12;41.89;101516.69;4163906;28;20359;-62
2023/07/13 05:49:53;;;;;;;;;;;;;;;23.12;41.77;101513.13;4165646;28;20019;-63
2023/07/13 05:51:55;;;;;;;;;;;;;;;23.11;41.55;101512.28;4173413;28;19921;-62
2023/07/13 05:53:57;;;;;;;;;;;;;;;23.10;41.65;101505.22;4163367;28;19921;-62
2023/07/13 05:55:58;;;;;;;;;;;;;;;23.09;41.97;101511.53;4172145;28;19920;-62
2023/07/13 05:58:03;;;;;;;;;;;;;;;23.10;41.71;101507.88;4164935;28;19971;-62
2023/07/13 06:00:05;;;;;;;;;;;;;;;23.10;41.91;101510.56;4166984;28;19928;-63
2023/07/13 06:02:09;;;;;;;;;;;;;;;23.10;41.79;101513.25;4161449;28;19975;-62
2023/07/13 06:04:10;;;;;;;;;;;;;;;23.11;41.99;101506.94;4183246;28;20031;-62
2023/07/13 06:06:12;;;;;;;;;;;;;;;23.11;41.74;101509.59;4172608;28;19975;-62
2023/07/13 06:08:14;;;;;;;;;;;;;;;23.11;41.74;101508.72;4179369;28;20375;-62
2023/07/13 06:10:15;;;;;;;;;;;;;;;23.11;41.93;101504.25;4181610;28;20601;-62
2023/07/13 06:12:17;;;;;;;;;;;;;;;23.11;41.86;101520.34;4171609;28;19921;-62
2023/07/13 06:14:19;;;;;;;;;;;;;;;23.11;41.67;101511.41;4183047;28;19921;-63
2023/07/13 06:16:22;;;;;;;;;;;;;;;23.10;41.71;101529.34;4173935;28;19925;-62
2023/07/13 06:18:23;;;;;;;;;;;;;;;23.10;41.91;101532.03;4178032;28;19956;-63
2023/07/13 06:20:30;;;;;;;;;;;;;;;23.10;41.62;101537.41;4181063;28;19952;-62
2023/07/13 06:22:32;;;;;;;;;;;;;;;23.10;41.96;101534.72;4171167;28;20003;-62
2023/07/13 06:24:33;;;;;;;;;;;;;;;23.10;41.97;101542.78;4182723;28;19999;-63
2023/07/13 06:26:35;;;;;;;;;;;;;;;23.11;41.74;101539.13;4175153;28;20425;-62
2023/07/13 06:28:37;;;;;;;;;;;;;;;23.11;41.96;101536.44;4177140;28;19927;-62
2023/07/13 06:30:39;;;;;;;;;;;;;;;23.10;41.67;101529.34;4181274;28;19959;-62
2023/07/13 06:32:41;;;;;;;;;;;;;;;23.12;42.11;101543.53;4177089;28;20388;-62
2023/07/13 06:34:42;;;;;;;;;;;;;;;23.10;41.97;101542.78;4165775;28;19921;-63
2023/07/13 06:36:44;;;;;;;;;;;;;;;23.11;41.80;101538.25;4170117;28;19927;-62
2023/07/13 06:38:45;;;;;;;;;;;;;;;23.12;41.74;101548.00;4173212;28;20389;-62
2023/07/13 06:40:47;;;;;;;;;;;;;;;23.10;41.73;101545.47;4166113;28;20399;-63
2023/07/13 06:42:49;;;;;;;;;;;;;;;23.09;42.12;101541.06;4178013;28;19921;-62
2023/07/13 06:44:50;;;;;;;;;;;;;;;23.10;41.92;101544.63;4148798;28;19925;-63
2023/07/13 06:46:52;;;;;;;;;;;;;;;23.09;42.04;101545.59;4159698;28;19927;-62
2023/07/13 06:48:54;;;;;;;;;;;;;;;23.09;41.75;101542.91;4175041;28;20255;-63
2023/07/13 06:50:56;;;;;;;;;;;;;;;23.09;41.92;101542.91;4165526;28;19963;-62
2023/07/13 06:52:59;;;;;;;;;;;;;;;23.07;41.89;101536.78;4176202;28;19948;-62
2023/07/13 06:55:06;;;;;;;;;;;;;;;23.07;41.93;101548.34;4165371;28;20042;-63
2023/07/13 06:57:07;;;;;;;;;;;;;;;23.09;42.15;101543.75;4168065;28;19928;-62
2023/07/13 06:59:09;;;;;;;;;;;;;;;23.08;41.87;101543.88;4175271;28;20012;-62
2023/07/13 07:01:10;;;;;;;;;;;;;;;23.09;42.09;101549.09;4165768;28;19974;-62
2023/07/13 07:03:13;;;;;;;;;;;;;;;23.08;41.63;101544.72;4175341;28;19921;-63
2023/07/13 07:05:15;;;;;;;;;;;;;;;23.07;41.75;101548.34;4166315;28;19921;-61
2023/07/13 07:07:16;;;;;;;;;;;;;;;23.09;42.16;101556.31;4166536;28;19929;-60
2023/07/13 07:09:18;;;;;;;;;;;;;;;23.10;42.09;101552.66;4176507;28;19921;-63
2023/07/13 07:11:22;;;;;;;;;;;;;;;23.10;41.88;101552.66;4164436;28;19924;-62
2023/07/13 07:13:28;;;;;;;;;;;;;;;23.11;41.85;101554.34;4174263;28;19969;-62
2023/07/13 07:15:30;;;;;;;;;;;;;;;23.12;41.77;101566.78;4167296;28;20015;-62
2023/07/13 07:17:31;;;;;;;;;;;;;;;23.14;41.97;101559.50;4166366;28;19972;-62
2023/07/13 07:19:34;;;;;;;;;;;;;;;23.15;41.67;101558.53;4176372;28;19921;-62
2023/07/13 07:21:36;;;;;;;;;;;;;;;23.18;41.62;101558.31;4165336;28;19967;-62
2023/07/13 07:23:38;;;;;;;;;;;;;;;23.21;41.76;101551.84;4172362;28;20004;-63
2023/07/13 07:25:41;;;;;;;;;;;;;;;23.21;41.55;101560.78;4168267;28;19932;-62
2023/07/13 07:27:43;;;;;;;;;;;;;;;23.23;41.43;101566.03;4166703;28;20372;-62
2023/07/13 07:29:48;;;;;;;;;;;;;;;23.14;41.78;101552.28;4176532;28;19921;-62
2023/07/13 07:32:09;;;;;;;;;;;;;;;23.22;41.68;101564.31;4164984;28;19975;-62
2023/07/13 07:34:31;;;;;;;;;;;;;;;23.21;41.60;101571.50;4176813;28;19929;-62
2023/07/13 07:36:33;;;;;;;;;;;;;;;23.21;41.73;101565.28;4147756;28;20016;-62
2023/07/13 07:38:40;;;;;;;;;;;;;;;23.20;41.85;101569.78;4160395;28;19971;-62
2023/07/13 07:40:42;;;;;;;;;;;;;;;23.22;41.48;101569.66;4173540;28;19932;-62
2023/07/13 07:42:46;;;;;;;;;;;;;;;23.22;41.50;101575.03;4165139;28;19921;-62
2023/07/13 07:44:48;;;;;;;;;;;;;;;23.25;41.46;101574.81;4175109;28;19999;-62
2023/07/13 07:46:49;;;;;;;;;;;;;;;23.25;41.65;101574.81;4164180;28;19970;-62
2023/07/13 07:48:51;;;;;;;;;;;;;;;23.27;41.36;101571.03;4166715;28;20098;-62
2023/07/13 07:50:52;;;;;;;;;;;;;;;23.29;41.42;101581.66;4174530;28;19975;-62
2023/07/13 07:52:55;;;;;;;;;;;;;;;23.31;41.46;101582.41;4164865;28;19928;-62
2023/07/13 07:54:57;;;;;;;;;;;;;;;23.32;41.55;101585.94;4174086;28;19924;-62
2023/07/13 07:57:19;;;;;;;;;;;;;;;23.33;41.46;101584.97;4164610;28;19999;-62
2023/07/13 07:59:40;;;;;;;;;;;;;;;23.33;41.75;101588.53;4170484;28;19974;-61
2023/07/13 08:01:46;;;;;;;;;;;;;;;23.34;41.61;101584.00;4169964;28;20035;-62
2023/07/13 08:03:50;;;;;;;;;;;;;;;23.34;41.63;101584.84;4165564;28;19975;-62
2023/07/13 08:05:54;;;;;;;;;;;;;;;23.33;41.67;101584.97;4174902;28;19936;-64
2023/07/13 08:07:59;;;;;;;;;;;;;;;23.34;41.75;101584.84;4164846;28;20008;-64
2023/07/13 08:10:00;;;;;;;;;;;;;;;23.36;41.60;101592.78;4170873;28;20286;-64
2023/07/13 08:12:02;;;;;;;;;;;;;;;23.34;41.73;101584.84;4152847;28;19925;-64
2023/07/13 08:14:07;;;;;;;;;;;;;;;23.36;41.43;101582.06;4165501;28;19927;-64
2023/07/13 08:16:08;;;;;;;;;;;;;;;23.37;41.80;101589.97;4171068;28;19959;-64
2023/07/13 08:18:10;;;;;;;;;;;;;;;23.37;41.42;101586.47;4164233;28;19921;-64
2023/07/13 08:20:11;;;;;;;;;;;;;;;23.35;41.80;101593.75;4169196;28;20385;-64
2023/07/13 08:22:13;;;;;;;;;;;;;;;23.35;41.50;101591.06;4171308;28;19929;-64
2023/07/13 08:24:15;;;;;;;;;;;;;;;23.37;41.69;101587.31;4164630;28;19924;-63
2023/07/13 08:26:17;;;;;;;;;;;;;;;23.38;41.83;101582.78;4175501;28;19920;-64
2023/07/13 08:28:20;;;;;;;;;;;;;;;23.38;41.62;101585.47;4164433;28;20387;-63
2023/07/13 08:30:21;;;;;;;;;;;;;;;23.41;41.84;101586.06;4167239;28;19921;-64
2023/07/13 08:32:23;;;;;;;;;;;;;;;23.39;41.57;101582.69;4175662;28;20372;-63
2023/07/13 08:34:25;;;;;;;;;;;;;;;23.41;41.79;101590.59;4180566;28;20011;-64
2023/07/13 08:36:27;;;;;;;;;;;;;;;23.40;41.55;101587.06;4168362;28;19921;-62
2023/07/13 08:38:32;;;;;;;;;;;;;;;23.38;41.80;101586.34;4179949;28;19925;-63
2023/07/13 08:40:33;;;;;;;;;;;;;;;23.38;41.71;101580.97;4177885;28;19927;-63
2023/07/13 08:42:38;;;;;;;;;;;;;;;23.42;41.60;101579.75;4170752;28;19928;-62
2023/07/13 08:44:47;;;;;;;;;;;;;;;23.40;41.77;101583.53;4180760;28;19928;-63
2023/07/13 08:46:50;;;;;;;;;;;;;;;23.39;41.58;101581.81;4167423;28;19921;-61
2023/07/13 08:48:59;;;;;;;;;;;;;;;23.38;41.58;101578.28;4179591;28;20296;-63
2023/07/13 08:51:01;;;;;;;;;;;;;;;23.37;41.99;101576.56;4176683;28;20042;-65
2023/07/13 08:53:03;;;;;;;;;;;;;;;23.41;41.95;101578.03;4154115;28;19925;-63
2023/07/13 08:55:14;;;;;;;;;;;;;;;23.43;41.57;101583.31;4180226;28;20296;-64
2023/07/13 08:57:18;;;;;;;;;;;;;;;23.42;41.45;101581.59;4167670;28;19927;-63
2023/07/13 08:59:22;;;;;;;;;;;;;;;23.43;41.71;101583.31;4147325;28;19921;-66
2023/07/13 09:01:47;;;;;;;;;;;;;;;23.43;41.42;101581.47;4158587;28;20478;-65
2023/07/13 09:03:57;;;;;;;;;;;;;;;23.43;41.59;101578.78;4174911;28;19931;-64
2023/07/13 09:05:59;;;;;;;;;;;;;;;23.43;41.77;101586.81;4177900;28;19932;-65
2023/07/13 09:08:20;;;;;;;;;;;;;;;23.44;41.79;101582.34;4168971;28;19974;-65
2023/07/13 09:10:43;;;;;;;;;;;;;;;23.46;41.73;101580.38;4180052;28;19921;-66
2023/07/13 09:12:58;;;;;;;;;;;;;;;23.46;41.66;101580.38;4167923;28;20016;-65
2023/07/13 09:15:00;;;;;;;;;;;;;;;23.48;41.91;101577.59;4147238;28;19921;-64
2023/07/13 09:17:08;;;;;;;;;;;;;;;23.46;41.69;101583.03;4157718;28;20372;-64
2023/07/13 09:19:15;;;;;;;;;;;;;;;23.46;41.63;101583.03;4170401;28;20008;-63
2023/07/13 09:21:34;;;;;;;;;;;;;;;23.50;41.68;101580.97;4163964;28;19925;-64
2023/07/13 09:23:37;;;;;;;;;;;;;;;23.50;41.28;101583.66;4169616;28;20019;-63
2023/07/13 09:25:40;;;;;;;;;;;;;;;23.49;41.32;101581.94;4165939;28;19964;-63
2023/07/13 09:27:44;;;;;;;;;;;;;;;23.48;41.61;101577.59;4164246;28;20227;-64
2023/07/13 09:29:48;;;;;;;;;;;;;;;23.49;41.29;101585.50;4169860;28;19921;-62
2023/07/13 09:31:53;;;;;;;;;;;;;;;23.47;41.43;101581.25;4163305;28;19935;-63
2023/07/13 09:33:55;;;;;;;;;;;;;;;23.45;41.58;101571.47;4165353;28;19921;-62
2023/07/13 09:35:59;;;;;;;;;;;;;;;23.44;41.62;101576.97;4162544;28;19921;-61
2023/07/13 09:38:14;;;;;;;;;;;;;;;23.44;41.59;101582.34;4169941;28;19921;-63
2023/07/13 09:40:36;;;;;;;;;;;;;;;23.43;41.57;101584.16;4166845;28;19925;-63
2023/07/13 09:42:38;;;;;;;;;;;;;;;23.41;41.53;101578.03;4165486;28;20299;-63
2023/07/13 09:45:02;;;;;;;;;;;;;;;23.43;41.63;101589.50;4172658;28;19921;-64
2023/07/13 09:47:16;;;;;;;;;;;;;;;23.43;41.99;101588.66;4162330;28;19928;-65
2023/07/13 09:49:18;;;;;;;;;;;;;;;23.42;42.16;101589.63;4174312;28;20409;-65
2023/07/13 09:51:20;;;;;;;;;;;;;;;23.40;41.87;101584.41;4163430;28;20388;-63
2023/07/13 09:53:23;;;;;;;;;;;;;;;23.40;42.14;101597.81;4168584;28;19921;-64
2023/07/13 09:55:26;;;;;;;;;;;;;;;23.41;41.90;101587.91;4168758;28;19994;-65
2023/07/13 09:57:28;;;;;;;;;;;;;;;23.41;42.26;101590.59;4163033;28;19928;-62
2023/07/13 09:59:52;;;;;;;;;;;;;;;23.53;43.68;101600.41;4154431;28;19928;-64
2023/07/13 10:01:53;;;;;;;;;;;;;;;23.61;42.85;101599.84;4161858;28;20301;-64
2023/07/13 10:03:55;;;;;;;;;;;;;;;23.58;42.66;101594.69;4169698;28;19979;-66
2023/07/13 10:06:01;;;;;;;;;;;;;;;23.58;42.91;101600.06;4172964;28;19928;-65
2023/07/13 10:08:03;;;;;;;;;;;;;;;23.66;43.49;101604.81;4172975;28;19951;-64
2023/07/13 10:10:13;;;;;;;;;;;;;;;23.74;42.72;101602.41;4171515;28;19921;-61
2023/07/13 10:12:15;;;;;;;;;;;;;;;23.78;42.14;101606.56;4162933;28;19921;-65
2023/07/13 10:14:20;;;;;;;;;;;;;;;23.86;42.41;101604.13;4151865;28;20296;-66
2023/07/13 10:16:23;;;;;;;;;;;;;;;23.89;41.81;101605.72;4160766;28;19920;-64
2023/07/13 10:18:25;;;;;;;;;;;;;;;23.92;42.00;101605.50;4163599;28;19944;-64
2023/07/13 10:20:27;;;;;;;;;;;;;;;23.98;41.80;101612.25;4173834;28;19921;-62
2023/07/13 10:22:49;;;;;;;;;;;;;;;24.02;41.37;101614.59;4160874;28;19960;-65
2023/07/13 10:24:51;;;;;;;;;;;;;;;24.07;41.39;101611.50;4154492;28;20007;-64
2023/07/13 10:26:56;;;;;;;;;;;;;;;24.09;41.20;101620.31;4146778;28;19926;-64
2023/07/13 10:29:01;;;;;;;;;;;;;;;24.15;41.27;101618.97;4145995;28;19940;-63
2023/07/13 10:31:05;;;;;;;;;;;;;;;24.18;41.22;101627.66;4171829;28;20319;-63
2023/07/13 10:33:11;;;;;;;;;;;;;;;24.24;41.24;101626.28;4155266;28;19921;-63